sensor_id;sensor_type;location;lat;lon;timestamp;P1;durP1;ratioP1;P2;durP2;ratioP2
62401;SDS011;48440;51.224;22.506;2022-11-20T00:00:09;52.45;;;20.95;;
62401;SDS011;48440;51.224;22.506;2022-11-20T00:02:35;54.00;;;23.45;;
62401;SDS011;48440;51.224;22.506;2022-11-20T00:05:00;54.25;;;22.10;;
62401;SDS011;48440;51.224;22.506;2022-11-20T00:07:26;56.35;;;22.60;;
62401;SDS011;48440;51.224;22.506;2022-11-20T00:09:51;54.72;;;22.38;;
62401;SDS011;48440;51.224;22.506;2022-11-20T00:12:16;55.92;;;24.45;;
62401;SDS011;48440;51.224;22.506;2022-11-20T00:14:42;60.45;;;22.90;;
62401;SDS011;48440;51.224;22.506;2022-11-20T00:17:07;54.58;;;22.13;;
62401;SDS011;48440;51.224;22.506;2022-11-20T00:19:33;53.80;;;22.02;;
62401;SDS011;48440;51.224;22.506;2022-11-20T00:21:58;51.67;;;21.48;;
62401;SDS011;48440;51.224;22.506;2022-11-20T00:24:24;46.70;;;19.98;;
62401;SDS011;48440;51.224;22.506;2022-11-20T00:26:49;47.88;;;20.10;;
62401;SDS011;48440;51.224;22.506;2022-11-20T00:29:15;42.92;;;18.33;;
62401;SDS011;48440;51.224;22.506;2022-11-20T00:31:40;43.10;;;18.33;;
62401;SDS011;48440;51.224;22.506;2022-11-20T00:34:06;41.35;;;17.15;;
62401;SDS011;48440;51.224;22.506;2022-11-20T00:36:32;38.88;;;17.00;;
62401;SDS011;48440;51.224;22.506;2022-11-20T00:38:58;43.22;;;18.67;;
62401;SDS011;48440;51.224;22.506;2022-11-20T00:41:25;41.47;;;17.73;;
62401;SDS011;48440;51.224;22.506;2022-11-20T00:43:52;36.05;;;16.23;;
62401;SDS011;48440;51.224;22.506;2022-11-20T00:46:19;43.13;;;17.60;;
62401;SDS011;48440;51.224;22.506;2022-11-20T00:48:46;38.72;;;17.67;;
62401;SDS011;48440;51.224;22.506;2022-11-20T00:51:13;39.75;;;16.23;;
62401;SDS011;48440;51.224;22.506;2022-11-20T00:53:40;43.13;;;18.13;;
62401;SDS011;48440;51.224;22.506;2022-11-20T00:56:07;36.28;;;15.30;;
62401;SDS011;48440;51.224;22.506;2022-11-20T00:58:36;41.03;;;16.98;;
62401;SDS011;48440;51.224;22.506;2022-11-20T01:03:34;38.40;;;16.35;;
62401;SDS011;48440;51.224;22.506;2022-11-20T01:06:02;37.28;;;16.45;;
62401;SDS011;48440;51.224;22.506;2022-11-20T01:08:29;38.88;;;17.55;;
62401;SDS011;48440;51.224;22.506;2022-11-20T01:11:06;38.13;;;17.15;;
62401;SDS011;48440;51.224;22.506;2022-11-20T01:13:34;36.08;;;15.88;;
62401;SDS011;48440;51.224;22.506;2022-11-20T01:16:10;47.13;;;17.08;;
62401;SDS011;48440;51.224;22.506;2022-11-20T01:18:38;41.30;;;16.92;;
62401;SDS011;48440;51.224;22.506;2022-11-20T01:21:10;45.58;;;17.55;;
62401;SDS011;48440;51.224;22.506;2022-11-20T01:23:38;44.55;;;18.50;;
62401;SDS011;48440;51.224;22.506;2022-11-20T01:26:06;39.83;;;17.20;;
62401;SDS011;48440;51.224;22.506;2022-11-20T01:28:34;38.40;;;17.98;;
62401;SDS011;48440;51.224;22.506;2022-11-20T01:31:00;47.38;;;19.95;;
62401;SDS011;48440;51.224;22.506;2022-11-20T01:33:26;44.65;;;20.27;;
62401;SDS011;48440;51.224;22.506;2022-11-20T01:35:52;51.13;;;20.02;;
62401;SDS011;48440;51.224;22.506;2022-11-20T01:38:18;50.17;;;20.58;;
62401;SDS011;48440;51.224;22.506;2022-11-20T01:40:45;47.70;;;20.00;;
62401;SDS011;48440;51.224;22.506;2022-11-20T01:48:33;49.10;;;18.20;;
62401;SDS011;48440;51.224;22.506;2022-11-20T01:51:03;48.05;;;20.13;;
62401;SDS011;48440;51.224;22.506;2022-11-20T01:53:35;47.65;;;19.60;;
62401;SDS011;48440;51.224;22.506;2022-11-20T01:56:03;51.92;;;19.90;;
62401;SDS011;48440;51.224;22.506;2022-11-20T01:58:33;44.50;;;19.48;;
62401;SDS011;48440;51.224;22.506;2022-11-20T02:01:03;44.97;;;19.85;;
62401;SDS011;48440;51.224;22.506;2022-11-20T02:03:29;44.70;;;19.73;;
62401;SDS011;48440;51.224;22.506;2022-11-20T02:08:51;45.35;;;18.70;;
62401;SDS011;48440;51.224;22.506;2022-11-20T02:11:17;50.90;;;20.08;;
62401;SDS011;48440;51.224;22.506;2022-11-20T02:13:43;41.83;;;17.67;;
62401;SDS011;48440;51.224;22.506;2022-11-20T02:18:40;42.58;;;18.67;;
62401;SDS011;48440;51.224;22.506;2022-11-20T02:21:09;38.42;;;17.38;;
62401;SDS011;48440;51.224;22.506;2022-11-20T02:26:30;36.78;;;15.88;;
62401;SDS011;48440;51.224;22.506;2022-11-20T02:29:00;34.78;;;14.82;;
62401;SDS011;48440;51.224;22.506;2022-11-20T02:31:26;35.10;;;14.77;;
62401;SDS011;48440;51.224;22.506;2022-11-20T02:33:58;34.13;;;15.48;;
62401;SDS011;48440;51.224;22.506;2022-11-20T02:36:24;32.40;;;15.15;;
62401;SDS011;48440;51.224;22.506;2022-11-20T02:38:52;31.35;;;15.85;;
62401;SDS011;48440;51.224;22.506;2022-11-20T02:41:18;38.08;;;15.60;;
62401;SDS011;48440;51.224;22.506;2022-11-20T02:43:44;32.45;;;14.63;;
62401;SDS011;48440;51.224;22.506;2022-11-20T02:46:09;34.65;;;14.68;;
62401;SDS011;48440;51.224;22.506;2022-11-20T02:48:34;34.97;;;15.52;;
62401;SDS011;48440;51.224;22.506;2022-11-20T02:51:00;34.50;;;15.27;;
62401;SDS011;48440;51.224;22.506;2022-11-20T02:53:26;33.35;;;15.05;;
62401;SDS011;48440;51.224;22.506;2022-11-20T02:55:52;32.03;;;14.55;;
62401;SDS011;48440;51.224;22.506;2022-11-20T02:58:17;29.48;;;13.43;;
62401;SDS011;48440;51.224;22.506;2022-11-20T03:00:42;33.78;;;14.50;;
62401;SDS011;48440;51.224;22.506;2022-11-20T03:03:08;29.27;;;14.32;;
62401;SDS011;48440;51.224;22.506;2022-11-20T03:05:33;33.38;;;15.40;;
62401;SDS011;48440;51.224;22.506;2022-11-20T03:07:59;35.40;;;15.48;;
62401;SDS011;48440;51.224;22.506;2022-11-20T03:10:25;37.50;;;16.25;;
62401;SDS011;48440;51.224;22.506;2022-11-20T03:12:54;36.78;;;16.00;;
62401;SDS011;48440;51.224;22.506;2022-11-20T03:15:21;34.42;;;15.80;;
62401;SDS011;48440;51.224;22.506;2022-11-20T03:17:47;35.70;;;15.50;;
62401;SDS011;48440;51.224;22.506;2022-11-20T03:20:13;33.90;;;14.85;;
62401;SDS011;48440;51.224;22.506;2022-11-20T03:22:38;35.33;;;13.98;;
62401;SDS011;48440;51.224;22.506;2022-11-20T03:25:04;37.58;;;15.55;;
62401;SDS011;48440;51.224;22.506;2022-11-20T03:27:33;33.83;;;16.33;;
62401;SDS011;48440;51.224;22.506;2022-11-20T03:30:00;32.45;;;13.90;;
62401;SDS011;48440;51.224;22.506;2022-11-20T03:32:25;33.28;;;15.55;;
62401;SDS011;48440;51.224;22.506;2022-11-20T03:34:51;33.45;;;15.52;;
62401;SDS011;48440;51.224;22.506;2022-11-20T03:37:16;34.88;;;15.23;;
62401;SDS011;48440;51.224;22.506;2022-11-20T03:39:42;31.75;;;15.48;;
62401;SDS011;48440;51.224;22.506;2022-11-20T03:42:08;36.17;;;16.40;;
62401;SDS011;48440;51.224;22.506;2022-11-20T03:44:53;36.40;;;15.43;;
62401;SDS011;48440;51.224;22.506;2022-11-20T03:47:19;31.33;;;15.25;;
62401;SDS011;48440;51.224;22.506;2022-11-20T03:49:44;32.03;;;16.08;;
62401;SDS011;48440;51.224;22.506;2022-11-20T03:52:10;34.97;;;15.55;;
62401;SDS011;48440;51.224;22.506;2022-11-20T03:54:35;35.00;;;14.77;;
62401;SDS011;48440;51.224;22.506;2022-11-20T03:57:00;32.85;;;15.55;;
62401;SDS011;48440;51.224;22.506;2022-11-20T03:59:26;29.98;;;15.27;;
62401;SDS011;48440;51.224;22.506;2022-11-20T04:01:51;34.25;;;16.17;;
62401;SDS011;48440;51.224;22.506;2022-11-20T04:04:17;32.17;;;14.68;;
62401;SDS011;48440;51.224;22.506;2022-11-20T04:06:42;32.10;;;15.35;;
62401;SDS011;48440;51.224;22.506;2022-11-20T04:09:08;29.95;;;14.57;;
62401;SDS011;48440;51.224;22.506;2022-11-20T04:11:34;30.27;;;14.73;;
62401;SDS011;48440;51.224;22.506;2022-11-20T04:14:03;35.05;;;14.50;;
62401;SDS011;48440;51.224;22.506;2022-11-20T04:16:31;33.17;;;15.60;;
62401;SDS011;48440;51.224;22.506;2022-11-20T04:18:59;33.55;;;15.93;;
62401;SDS011;48440;51.224;22.506;2022-11-20T04:21:26;28.75;;;14.55;;
62401;SDS011;48440;51.224;22.506;2022-11-20T04:23:53;30.63;;;15.38;;
62401;SDS011;48440;51.224;22.506;2022-11-20T04:26:19;33.22;;;15.35;;
62401;SDS011;48440;51.224;22.506;2022-11-20T04:28:45;32.47;;;15.70;;
62401;SDS011;48440;51.224;22.506;2022-11-20T04:31:14;31.20;;;15.48;;
62401;SDS011;48440;51.224;22.506;2022-11-20T04:33:44;36.05;;;15.73;;
62401;SDS011;48440;51.224;22.506;2022-11-20T04:36:11;33.53;;;14.93;;
62401;SDS011;48440;51.224;22.506;2022-11-20T04:38:39;34.28;;;16.13;;
62401;SDS011;48440;51.224;22.506;2022-11-20T04:41:06;36.30;;;15.95;;
62401;SDS011;48440;51.224;22.506;2022-11-20T04:43:33;31.95;;;15.02;;
62401;SDS011;48440;51.224;22.506;2022-11-20T04:45:59;30.42;;;15.15;;
62401;SDS011;48440;51.224;22.506;2022-11-20T04:48:26;34.83;;;16.50;;
62401;SDS011;48440;51.224;22.506;2022-11-20T04:50:53;31.42;;;15.00;;
62401;SDS011;48440;51.224;22.506;2022-11-20T04:53:19;34.50;;;15.85;;
62401;SDS011;48440;51.224;22.506;2022-11-20T04:55:46;34.33;;;15.40;;
62401;SDS011;48440;51.224;22.506;2022-11-20T04:58:12;36.67;;;16.35;;
62401;SDS011;48440;51.224;22.506;2022-11-20T05:00:38;32.50;;;15.90;;
62401;SDS011;48440;51.224;22.506;2022-11-20T05:03:04;31.05;;;16.13;;
62401;SDS011;48440;51.224;22.506;2022-11-20T05:05:30;33.15;;;15.85;;
62401;SDS011;48440;51.224;22.506;2022-11-20T05:07:58;33.55;;;15.05;;
62401;SDS011;48440;51.224;22.506;2022-11-20T05:10:25;33.47;;;14.77;;
62401;SDS011;48440;51.224;22.506;2022-11-20T05:12:51;33.05;;;15.70;;
62401;SDS011;48440;51.224;22.506;2022-11-20T05:15:17;31.65;;;16.30;;
62401;SDS011;48440;51.224;22.506;2022-11-20T05:17:52;35.33;;;15.50;;
62401;SDS011;48440;51.224;22.506;2022-11-20T05:20:18;33.70;;;16.20;;
62401;SDS011;48440;51.224;22.506;2022-11-20T05:22:44;34.45;;;16.17;;
62401;SDS011;48440;51.224;22.506;2022-11-20T05:25:10;36.63;;;16.45;;
62401;SDS011;48440;51.224;22.506;2022-11-20T05:27:36;34.38;;;16.23;;
62401;SDS011;48440;51.224;22.506;2022-11-20T05:30:06;35.58;;;15.48;;
62401;SDS011;48440;51.224;22.506;2022-11-20T05:32:32;33.67;;;15.60;;
62401;SDS011;48440;51.224;22.506;2022-11-20T05:34:57;35.00;;;16.63;;
62401;SDS011;48440;51.224;22.506;2022-11-20T05:37:23;32.60;;;15.98;;
62401;SDS011;48440;51.224;22.506;2022-11-20T05:39:48;33.47;;;16.20;;
62401;SDS011;48440;51.224;22.506;2022-11-20T05:42:14;32.22;;;15.02;;
62401;SDS011;48440;51.224;22.506;2022-11-20T05:45:01;36.25;;;16.58;;
62401;SDS011;48440;51.224;22.506;2022-11-20T05:47:30;31.25;;;15.00;;
62401;SDS011;48440;51.224;22.506;2022-11-20T05:49:57;37.03;;;15.77;;
62401;SDS011;48440;51.224;22.506;2022-11-20T05:52:23;33.40;;;15.23;;
62401;SDS011;48440;51.224;22.506;2022-11-20T05:54:49;29.48;;;15.40;;
62401;SDS011;48440;51.224;22.506;2022-11-20T05:57:14;34.22;;;15.52;;
62401;SDS011;48440;51.224;22.506;2022-11-20T05:59:40;31.92;;;15.52;;
62401;SDS011;48440;51.224;22.506;2022-11-20T06:02:05;32.08;;;14.88;;
62401;SDS011;48440;51.224;22.506;2022-11-20T06:04:31;33.33;;;15.48;;
62401;SDS011;48440;51.224;22.506;2022-11-20T06:06:57;39.47;;;16.40;;
62401;SDS011;48440;51.224;22.506;2022-11-20T06:09:22;31.33;;;15.75;;
62401;SDS011;48440;51.224;22.506;2022-11-20T06:11:47;35.78;;;16.85;;
62401;SDS011;48440;51.224;22.506;2022-11-20T06:14:13;35.88;;;16.98;;
62401;SDS011;48440;51.224;22.506;2022-11-20T06:16:38;35.95;;;16.67;;
62401;SDS011;48440;51.224;22.506;2022-11-20T06:19:04;36.03;;;17.40;;
62401;SDS011;48440;51.224;22.506;2022-11-20T06:21:29;39.85;;;16.77;;
62401;SDS011;48440;51.224;22.506;2022-11-20T06:23:55;37.38;;;17.17;;
62401;SDS011;48440;51.224;22.506;2022-11-20T06:26:21;38.15;;;16.58;;
62401;SDS011;48440;51.224;22.506;2022-11-20T06:28:48;40.78;;;17.25;;
62401;SDS011;48440;51.224;22.506;2022-11-20T06:31:15;37.72;;;16.63;;
62401;SDS011;48440;51.224;22.506;2022-11-20T06:33:43;34.42;;;16.83;;
62401;SDS011;48440;51.224;22.506;2022-11-20T06:36:09;37.25;;;16.63;;
62401;SDS011;48440;51.224;22.506;2022-11-20T06:38:37;35.83;;;16.35;;
62401;SDS011;48440;51.224;22.506;2022-11-20T06:41:04;37.03;;;16.50;;
62401;SDS011;48440;51.224;22.506;2022-11-20T06:43:35;35.25;;;16.13;;
62401;SDS011;48440;51.224;22.506;2022-11-20T06:46:00;34.65;;;16.17;;
62401;SDS011;48440;51.224;22.506;2022-11-20T06:48:26;34.88;;;15.65;;
62401;SDS011;48440;51.224;22.506;2022-11-20T06:50:53;39.72;;;17.10;;
62401;SDS011;48440;51.224;22.506;2022-11-20T06:53:18;36.28;;;16.33;;
62401;SDS011;48440;51.224;22.506;2022-11-20T06:55:47;41.10;;;16.42;;
62401;SDS011;48440;51.224;22.506;2022-11-20T06:58:14;37.20;;;15.82;;
62401;SDS011;48440;51.224;22.506;2022-11-20T07:00:40;34.95;;;16.45;;
62401;SDS011;48440;51.224;22.506;2022-11-20T07:03:06;36.78;;;16.75;;
62401;SDS011;48440;51.224;22.506;2022-11-20T07:05:34;36.05;;;16.38;;
62401;SDS011;48440;51.224;22.506;2022-11-20T07:07:59;36.88;;;15.95;;
62401;SDS011;48440;51.224;22.506;2022-11-20T07:10:25;33.25;;;15.93;;
62401;SDS011;48440;51.224;22.506;2022-11-20T07:12:51;36.00;;;16.52;;
62401;SDS011;48440;51.224;22.506;2022-11-20T07:15:18;37.60;;;16.08;;
62401;SDS011;48440;51.224;22.506;2022-11-20T07:17:44;31.73;;;15.70;;
62401;SDS011;48440;51.224;22.506;2022-11-20T07:20:10;31.70;;;15.40;;
62401;SDS011;48440;51.224;22.506;2022-11-20T07:22:36;36.53;;;15.18;;
62401;SDS011;48440;51.224;22.506;2022-11-20T07:25:02;33.63;;;15.75;;
62401;SDS011;48440;51.224;22.506;2022-11-20T07:27:29;34.90;;;16.23;;
62401;SDS011;48440;51.224;22.506;2022-11-20T07:29:54;37.40;;;15.93;;
62401;SDS011;48440;51.224;22.506;2022-11-20T07:32:21;31.40;;;14.93;;
62401;SDS011;48440;51.224;22.506;2022-11-20T07:34:47;33.38;;;16.77;;
62401;SDS011;48440;51.224;22.506;2022-11-20T07:37:12;36.30;;;15.40;;
62401;SDS011;48440;51.224;22.506;2022-11-20T07:39:38;30.13;;;14.20;;
62401;SDS011;48440;51.224;22.506;2022-11-20T07:42:05;29.63;;;13.43;;
62401;SDS011;48440;51.224;22.506;2022-11-20T07:44:31;31.15;;;14.10;;
62401;SDS011;48440;51.224;22.506;2022-11-20T07:46:56;31.13;;;14.20;;
62401;SDS011;48440;51.224;22.506;2022-11-20T07:49:22;29.50;;;13.70;;
62401;SDS011;48440;51.224;22.506;2022-11-20T07:51:50;30.25;;;14.27;;
62401;SDS011;48440;51.224;22.506;2022-11-20T07:54:16;31.35;;;13.93;;
62401;SDS011;48440;51.224;22.506;2022-11-20T07:56:42;31.90;;;14.55;;
62401;SDS011;48440;51.224;22.506;2022-11-20T07:59:07;32.10;;;13.43;;
62401;SDS011;48440;51.224;22.506;2022-11-20T08:01:32;31.80;;;14.25;;
62401;SDS011;48440;51.224;22.506;2022-11-20T08:03:58;30.58;;;13.55;;
62401;SDS011;48440;51.224;22.506;2022-11-20T08:06:24;30.77;;;13.90;;
62401;SDS011;48440;51.224;22.506;2022-11-20T08:08:49;28.65;;;13.02;;
62401;SDS011;48440;51.224;22.506;2022-11-20T08:11:15;28.98;;;12.15;;
62401;SDS011;48440;51.224;22.506;2022-11-20T08:13:59;34.30;;;14.25;;
62401;SDS011;48440;51.224;22.506;2022-11-20T08:16:38;29.65;;;13.00;;
62401;SDS011;48440;51.224;22.506;2022-11-20T08:19:07;30.65;;;13.52;;
62401;SDS011;48440;51.224;22.506;2022-11-20T08:21:33;32.20;;;14.18;;
62401;SDS011;48440;51.224;22.506;2022-11-20T08:23:59;30.42;;;13.45;;
62401;SDS011;48440;51.224;22.506;2022-11-20T08:26:25;33.38;;;13.95;;
62401;SDS011;48440;51.224;22.506;2022-11-20T08:28:57;31.65;;;14.43;;
62401;SDS011;48440;51.224;22.506;2022-11-20T08:31:24;33.83;;;14.07;;
62401;SDS011;48440;51.224;22.506;2022-11-20T08:33:51;30.63;;;13.27;;
62401;SDS011;48440;51.224;22.506;2022-11-20T08:36:17;34.35;;;14.82;;
62401;SDS011;48440;51.224;22.506;2022-11-20T08:38:50;32.13;;;14.63;;
62401;SDS011;48440;51.224;22.506;2022-11-20T08:41:17;32.13;;;13.77;;
62401;SDS011;48440;51.224;22.506;2022-11-20T08:46:22;29.70;;;13.40;;
62401;SDS011;48440;51.224;22.506;2022-11-20T08:48:52;36.38;;;15.40;;
62401;SDS011;48440;51.224;22.506;2022-11-20T08:51:17;30.48;;;14.48;;
62401;SDS011;48440;51.224;22.506;2022-11-20T08:53:46;36.70;;;15.82;;
62401;SDS011;48440;51.224;22.506;2022-11-20T08:56:13;36.20;;;15.02;;
62401;SDS011;48440;51.224;22.506;2022-11-20T08:58:39;36.15;;;15.23;;
62401;SDS011;48440;51.224;22.506;2022-11-20T09:01:05;35.90;;;14.80;;
62401;SDS011;48440;51.224;22.506;2022-11-20T09:03:31;34.97;;;14.73;;
62401;SDS011;48440;51.224;22.506;2022-11-20T09:06:01;38.20;;;16.15;;
62401;SDS011;48440;51.224;22.506;2022-11-20T09:08:28;41.30;;;17.00;;
62401;SDS011;48440;51.224;22.506;2022-11-20T09:10:56;36.00;;;14.57;;
62401;SDS011;48440;51.224;22.506;2022-11-20T09:13:22;33.92;;;14.82;;
62401;SDS011;48440;51.224;22.506;2022-11-20T09:15:55;32.15;;;14.00;;
62401;SDS011;48440;51.224;22.506;2022-11-20T09:20:48;24.92;;;11.82;;
62401;SDS011;48440;51.224;22.506;2022-11-20T09:23:17;26.52;;;12.90;;
62401;SDS011;48440;51.224;22.506;2022-11-20T09:25:43;33.20;;;14.00;;
62401;SDS011;48440;51.224;22.506;2022-11-20T09:28:11;32.08;;;13.68;;
62401;SDS011;48440;51.224;22.506;2022-11-20T09:30:45;28.33;;;12.50;;
62401;SDS011;48440;51.224;22.506;2022-11-20T09:33:17;32.25;;;14.18;;
62401;SDS011;48440;51.224;22.506;2022-11-20T09:35:43;33.55;;;13.90;;
62401;SDS011;48440;51.224;22.506;2022-11-20T09:41:10;33.28;;;14.13;;
62401;SDS011;48440;51.224;22.506;2022-11-20T09:46:46;30.00;;;12.50;;
62401;SDS011;48440;51.224;22.506;2022-11-20T09:51:59;28.88;;;12.90;;
62401;SDS011;48440;51.224;22.506;2022-11-20T09:54:30;33.30;;;12.95;;
62401;SDS011;48440;51.224;22.506;2022-11-20T09:56:59;26.25;;;12.00;;
62401;SDS011;48440;51.224;22.506;2022-11-20T09:59:31;23.67;;;12.20;;
62401;SDS011;48440;51.224;22.506;2022-11-20T10:02:15;28.70;;;11.95;;
62401;SDS011;48440;51.224;22.506;2022-11-20T10:04:53;33.15;;;13.52;;
62401;SDS011;48440;51.224;22.506;2022-11-20T10:07:30;31.55;;;13.70;;
62401;SDS011;48440;51.224;22.506;2022-11-20T10:10:25;35.97;;;14.20;;
62401;SDS011;48440;51.224;22.506;2022-11-20T10:12:57;35.20;;;15.02;;
62401;SDS011;48440;51.224;22.506;2022-11-20T10:23:50;28.52;;;11.20;;
62401;SDS011;48440;51.224;22.506;2022-11-20T10:29:33;24.92;;;11.57;;
62401;SDS011;48440;51.224;22.506;2022-11-20T10:32:07;28.55;;;12.13;;
62401;SDS011;48440;51.224;22.506;2022-11-20T10:37:30;30.45;;;12.25;;
62401;SDS011;48440;51.224;22.506;2022-11-20T10:42:42;28.80;;;13.02;;
62401;SDS011;48440;51.224;22.506;2022-11-20T10:45:31;32.55;;;12.93;;
62401;SDS011;48440;51.224;22.506;2022-11-20T10:48:12;30.20;;;12.82;;
62401;SDS011;48440;51.224;22.506;2022-11-20T10:50:46;27.13;;;12.30;;
62401;SDS011;48440;51.224;22.506;2022-11-20T11:02:31;33.83;;;13.20;;
62401;SDS011;48440;51.224;22.506;2022-11-20T11:10:29;30.38;;;11.93;;
62401;SDS011;48440;51.224;22.506;2022-11-20T11:13:01;29.65;;;13.23;;
62401;SDS011;48440;51.224;22.506;2022-11-20T11:15:35;30.15;;;12.02;;
62401;SDS011;48440;51.224;22.506;2022-11-20T11:38:55;30.95;;;12.63;;
62401;SDS011;48440;51.224;22.506;2022-11-20T11:41:24;28.92;;;13.73;;
62401;SDS011;48440;51.224;22.506;2022-11-20T11:43:57;26.63;;;12.70;;
62401;SDS011;48440;51.224;22.506;2022-11-20T11:46:50;28.23;;;12.02;;
62401;SDS011;48440;51.224;22.506;2022-11-20T11:49:19;32.50;;;13.00;;
62401;SDS011;48440;51.224;22.506;2022-11-20T11:57:52;25.60;;;12.18;;
62401;SDS011;48440;51.224;22.506;2022-11-20T12:00:25;32.92;;;14.20;;
62401;SDS011;48440;51.224;22.506;2022-11-20T12:05:42;29.55;;;12.25;;
62401;SDS011;48440;51.224;22.506;2022-11-20T12:16:18;30.02;;;12.82;;
62401;SDS011;48440;51.224;22.506;2022-11-20T12:18:49;26.25;;;12.10;;
62401;SDS011;48440;51.224;22.506;2022-11-20T12:40:34;24.20;;;12.00;;
62401;SDS011;48440;51.224;22.506;2022-11-20T12:43:23;24.27;;;12.35;;
62401;SDS011;48440;51.224;22.506;2022-11-20T12:51:38;25.25;;;12.27;;
62401;SDS011;48440;51.224;22.506;2022-11-20T12:56:43;26.30;;;12.55;;
62401;SDS011;48440;51.224;22.506;2022-11-20T13:06:12;29.65;;;12.65;;
62401;SDS011;48440;51.224;22.506;2022-11-20T13:08:40;29.60;;;13.43;;
62401;SDS011;48440;51.224;22.506;2022-11-20T13:11:20;30.67;;;13.57;;
62401;SDS011;48440;51.224;22.506;2022-11-20T13:16:53;28.60;;;13.43;;
62401;SDS011;48440;51.224;22.506;2022-11-20T13:19:25;30.25;;;13.90;;
62401;SDS011;48440;51.224;22.506;2022-11-20T13:21:53;30.02;;;14.07;;
62401;SDS011;48440;51.224;22.506;2022-11-20T13:27:02;28.88;;;13.85;;
62401;SDS011;48440;51.224;22.506;2022-11-20T13:33:29;27.55;;;12.57;;
62401;SDS011;48440;51.224;22.506;2022-11-20T13:40:22;35.45;;;13.60;;
62401;SDS011;48440;51.224;22.506;2022-11-20T13:42:55;29.15;;;13.27;;
62401;SDS011;48440;51.224;22.506;2022-11-20T13:45:28;30.02;;;13.98;;
62401;SDS011;48440;51.224;22.506;2022-11-20T13:47:57;29.20;;;13.18;;
62401;SDS011;48440;51.224;22.506;2022-11-20T13:50:37;31.33;;;13.02;;
62401;SDS011;48440;51.224;22.506;2022-11-20T13:58:36;32.80;;;14.55;;
62401;SDS011;48440;51.224;22.506;2022-11-20T14:01:29;33.05;;;13.32;;
62401;SDS011;48440;51.224;22.506;2022-11-20T14:04:00;25.85;;;12.13;;
62401;SDS011;48440;51.224;22.506;2022-11-20T14:06:43;28.65;;;12.68;;
62401;SDS011;48440;51.224;22.506;2022-11-20T14:09:11;28.00;;;13.52;;
62401;SDS011;48440;51.224;22.506;2022-11-20T14:11:49;26.63;;;12.90;;
62401;SDS011;48440;51.224;22.506;2022-11-20T14:14:25;30.45;;;13.20;;
62401;SDS011;48440;51.224;22.506;2022-11-20T14:17:03;29.73;;;13.20;;
62401;SDS011;48440;51.224;22.506;2022-11-20T14:19:33;28.85;;;13.57;;
62401;SDS011;48440;51.224;22.506;2022-11-20T14:22:08;25.08;;;12.80;;
62401;SDS011;48440;51.224;22.506;2022-11-20T14:28:19;28.23;;;13.07;;
62401;SDS011;48440;51.224;22.506;2022-11-20T14:31:23;25.52;;;11.85;;
62401;SDS011;48440;51.224;22.506;2022-11-20T14:33:50;27.95;;;13.32;;
62401;SDS011;48440;51.224;22.506;2022-11-20T14:36:19;30.70;;;12.85;;
62401;SDS011;48440;51.224;22.506;2022-11-20T14:38:50;29.67;;;13.45;;
62401;SDS011;48440;51.224;22.506;2022-11-20T14:41:21;28.02;;;12.27;;
62401;SDS011;48440;51.224;22.506;2022-11-20T14:43:50;33.67;;;14.82;;
62401;SDS011;48440;51.224;22.506;2022-11-20T14:46:20;32.03;;;13.38;;
62401;SDS011;48440;51.224;22.506;2022-11-20T14:48:50;31.60;;;14.32;;
62401;SDS011;48440;51.224;22.506;2022-11-20T14:56:54;27.55;;;12.93;;
62401;SDS011;48440;51.224;22.506;2022-11-20T14:59:27;32.88;;;13.55;;
62401;SDS011;48440;51.224;22.506;2022-11-20T15:02:10;31.27;;;13.75;;
62401;SDS011;48440;51.224;22.506;2022-11-20T15:04:50;34.80;;;15.50;;
62401;SDS011;48440;51.224;22.506;2022-11-20T15:08:03;32.65;;;14.38;;
62401;SDS011;48440;51.224;22.506;2022-11-20T15:10:29;35.10;;;16.38;;
62401;SDS011;48440;51.224;22.506;2022-11-20T15:13:02;35.42;;;14.90;;
62401;SDS011;48440;51.224;22.506;2022-11-20T15:22:11;36.35;;;15.48;;
62401;SDS011;48440;51.224;22.506;2022-11-20T15:24:38;34.67;;;16.30;;
62401;SDS011;48440;51.224;22.506;2022-11-20T15:27:04;38.60;;;16.50;;
62401;SDS011;48440;51.224;22.506;2022-11-20T15:29:29;35.60;;;15.93;;
62401;SDS011;48440;51.224;22.506;2022-11-20T15:31:56;32.55;;;15.38;;
62401;SDS011;48440;51.224;22.506;2022-11-20T15:34:22;39.97;;;16.55;;
62401;SDS011;48440;51.224;22.506;2022-11-20T15:36:51;35.85;;;15.43;;
62401;SDS011;48440;51.224;22.506;2022-11-20T15:39:18;36.40;;;16.95;;
62401;SDS011;48440;51.224;22.506;2022-11-20T15:41:50;39.10;;;17.73;;
62401;SDS011;48440;51.224;22.506;2022-11-20T15:47:37;36.33;;;15.80;;
62401;SDS011;48440;51.224;22.506;2022-11-20T15:53:33;33.75;;;14.68;;
62401;SDS011;48440;51.224;22.506;2022-11-20T15:55:59;39.60;;;17.73;;
62401;SDS011;48440;51.224;22.506;2022-11-20T15:58:25;31.08;;;14.75;;
62401;SDS011;48440;51.224;22.506;2022-11-20T16:00:52;35.55;;;15.10;;
62401;SDS011;48440;51.224;22.506;2022-11-20T16:03:18;33.47;;;14.98;;
62401;SDS011;48440;51.224;22.506;2022-11-20T16:05:44;37.85;;;16.58;;
62401;SDS011;48440;51.224;22.506;2022-11-20T16:08:10;37.65;;;15.93;;
62401;SDS011;48440;51.224;22.506;2022-11-20T16:10:36;33.65;;;15.32;;
62401;SDS011;48440;51.224;22.506;2022-11-20T16:13:03;34.03;;;16.52;;
62401;SDS011;48440;51.224;22.506;2022-11-20T16:15:52;38.45;;;15.43;;
62401;SDS011;48440;51.224;22.506;2022-11-20T16:18:24;35.88;;;14.93;;
62401;SDS011;48440;51.224;22.506;2022-11-20T16:20:51;37.60;;;15.73;;
62401;SDS011;48440;51.224;22.506;2022-11-20T16:23:18;35.58;;;15.35;;
62401;SDS011;48440;51.224;22.506;2022-11-20T16:25:45;40.20;;;15.85;;
62401;SDS011;48440;51.224;22.506;2022-11-20T16:28:12;33.00;;;15.98;;
62401;SDS011;48440;51.224;22.506;2022-11-20T16:30:38;35.47;;;15.90;;
62401;SDS011;48440;51.224;22.506;2022-11-20T16:33:04;34.30;;;16.85;;
62401;SDS011;48440;51.224;22.506;2022-11-20T16:35:34;39.75;;;16.90;;
62401;SDS011;48440;51.224;22.506;2022-11-20T16:38:00;36.90;;;16.77;;
62401;SDS011;48440;51.224;22.506;2022-11-20T16:40:25;43.78;;;18.13;;
62401;SDS011;48440;51.224;22.506;2022-11-20T16:42:54;38.97;;;17.67;;
62401;SDS011;48440;51.224;22.506;2022-11-20T16:45:20;36.35;;;17.00;;
62401;SDS011;48440;51.224;22.506;2022-11-20T16:47:46;47.45;;;19.95;;
62401;SDS011;48440;51.224;22.506;2022-11-20T16:50:11;41.10;;;19.00;;
62401;SDS011;48440;51.224;22.506;2022-11-20T16:52:37;40.92;;;19.50;;
62401;SDS011;48440;51.224;22.506;2022-11-20T16:55:03;40.42;;;19.23;;
62401;SDS011;48440;51.224;22.506;2022-11-20T16:57:29;46.17;;;18.48;;
62401;SDS011;48440;51.224;22.506;2022-11-20T16:59:57;42.25;;;18.65;;
62401;SDS011;48440;51.224;22.506;2022-11-20T17:02:28;49.80;;;18.58;;
62401;SDS011;48440;51.224;22.506;2022-11-20T17:04:54;48.13;;;20.42;;
62401;SDS011;48440;51.224;22.506;2022-11-20T17:07:21;44.47;;;19.35;;
62401;SDS011;48440;51.224;22.506;2022-11-20T17:09:47;41.45;;;18.00;;
62401;SDS011;48440;51.224;22.506;2022-11-20T17:12:13;43.08;;;19.05;;